Terminal Aerodrome Forecast
Issued by NWS

Current Version | Previous Version | Text Only | Print | Product List | Glossary On
Versions: 1 2 3 4 5 6 7 8 9 10 11 12 13 14 15 16 17 18 19 20 21
000
FTUS46 KMFR 311120
TAFOTH
TAF
KOTH 311120Z 3112/0112 15004KT 5SM BR OVC003
     FM311600 VRB04KT P6SM BKN010 BKN025
     FM311800 27009KT P6SM SCT025 BKN040
     FM010100 30008KT P6SM BKN015
     FM010400 VRB03KT P6SM OVC008=

USA.gov is the U.S. government's official web portal to all federal, state and local government web resources and services.